createdAt,value
2018-11-12T00:01:05.840Z,26.87
2018-11-12T00:03:35.078Z,21.30
2018-11-12T00:06:04.294Z,27.90
2018-11-12T00:08:33.506Z,24.53
2018-11-12T00:11:02.661Z,22.60
2018-11-12T00:13:32.034Z,18.27
2018-11-12T00:16:01.430Z,16.47
2018-11-12T00:18:30.893Z,15.23
2018-11-12T00:21:00.128Z,18.07
2018-11-12T00:23:29.245Z,18.17
2018-11-12T00:25:58.363Z,19.10
2018-11-12T00:28:27.538Z,17.97
2018-11-12T00:30:56.623Z,16.27
2018-11-12T00:33:25.876Z,16.30
2018-11-12T00:35:55.137Z,14.67
2018-11-12T00:38:24.285Z,15.40
2018-11-12T00:40:53.333Z,18.10
2018-11-12T00:43:22.607Z,13.67
2018-11-12T00:45:51.672Z,14.70
2018-11-12T00:48:20.918Z,13.33
2018-11-12T00:50:50.516Z,14.37
2018-11-12T00:53:19.885Z,15.90
2018-11-12T00:55:49.131Z,15.20
2018-11-12T00:58:18.302Z,14.50
2018-11-12T01:00:47.418Z,14.23
2018-11-12T01:03:16.568Z,14.60
2018-11-12T01:05:45.873Z,15.13
2018-11-12T01:08:14.961Z,13.40
2018-11-12T01:10:44.090Z,13.73
2018-11-12T01:13:13.463Z,14.40
2018-11-12T01:15:42.642Z,14.50
2018-11-12T01:18:11.877Z,14.27
2018-11-12T01:20:41.185Z,14.40
2018-11-12T01:23:10.556Z,13.40
2018-11-12T01:25:39.837Z,14.03
2018-11-12T01:28:09.002Z,13.70
2018-11-12T01:30:38.237Z,13.73
2018-11-12T01:33:07.425Z,13.90
2018-11-12T01:35:36.702Z,15.27
2018-11-12T01:38:05.950Z,13.13
2018-11-12T01:40:35.054Z,13.87
2018-11-12T01:43:04.365Z,12.43
2018-11-12T01:45:33.606Z,12.27
2018-11-12T01:48:02.861Z,13.73
2018-11-12T01:50:32.098Z,12.77
2018-11-12T01:53:01.319Z,12.47
2018-11-12T01:55:30.466Z,13.63
2018-11-12T01:57:59.764Z,14.07
2018-11-12T02:00:28.922Z,13.87
2018-11-12T02:02:58.144Z,14.27
2018-11-12T02:05:27.272Z,13.17
2018-11-12T02:07:56.405Z,12.90
2018-11-12T02:10:25.505Z,12.47
2018-11-12T02:12:54.663Z,11.20
2018-11-12T02:15:24.019Z,11.67
2018-11-12T02:17:53.089Z,12.50
2018-11-12T02:20:22.703Z,12.63
2018-11-12T02:22:52.092Z,12.00
2018-11-12T02:25:21.718Z,12.37
2018-11-12T02:27:51.029Z,12.47
2018-11-12T02:30:25.276Z,13.00
2018-11-12T02:32:54.703Z,11.30
2018-11-12T02:35:24.082Z,12.37
2018-11-12T02:37:53.253Z,12.13
2018-11-12T02:40:22.473Z,12.60
2018-11-12T02:42:51.788Z,12.60
2018-11-12T02:45:21.011Z,12.33
2018-11-12T02:47:50.230Z,13.43
2018-11-12T02:50:19.435Z,12.80
2018-11-12T02:52:48.856Z,13.07
2018-11-12T02:55:18.013Z,12.47
2018-11-12T02:57:47.700Z,12.70
2018-11-12T03:00:19.279Z,13.37
2018-11-12T03:02:48.475Z,13.10
2018-11-12T03:05:17.737Z,13.77
2018-11-12T03:07:47.243Z,14.13
2018-11-12T03:10:19.752Z,18.00
2018-11-12T03:12:49.099Z,15.73
2018-11-12T03:15:19.117Z,15.40
2018-11-12T03:17:49.170Z,14.77
2018-11-12T03:20:19.532Z,14.90
2018-11-12T03:22:49.017Z,14.83
2018-11-12T03:25:19.401Z,15.27
2018-11-12T03:27:49.485Z,14.30
2018-11-12T03:30:20.662Z,15.67
2018-11-12T03:32:50.774Z,15.30
2018-11-12T03:35:20.140Z,13.23
2018-11-12T03:37:50.052Z,14.07
2018-11-12T03:40:21.359Z,14.27
2018-11-12T03:42:51.280Z,14.00
2018-11-12T03:45:22.666Z,12.83
2018-11-12T03:47:51.937Z,13.83
2018-11-12T03:50:22.839Z,13.60
2018-11-12T03:52:52.358Z,14.70
2018-11-12T03:55:22.429Z,16.73
2018-11-12T03:57:51.864Z,16.27
2018-11-12T04:00:23.493Z,18.83
2018-11-12T04:02:52.993Z,18.40
2018-11-12T04:05:22.193Z,17.73
2018-11-12T04:07:51.634Z,16.33
2018-11-12T04:10:21.604Z,14.93
2018-11-12T04:12:51.330Z,16.67
2018-11-12T04:15:23.129Z,16.93
2018-11-12T04:17:52.561Z,17.83
2018-11-12T04:20:22.999Z,18.10
2018-11-12T04:23:03.691Z,17.70
2018-11-12T04:25:34.669Z,17.53
2018-11-12T04:28:04.285Z,15.63
2018-11-12T04:30:33.585Z,16.00
2018-11-12T04:33:02.934Z,15.70
2018-11-12T04:35:32.509Z,16.40
2018-11-12T04:38:01.869Z,18.73
2018-11-12T04:40:31.297Z,18.10
2018-11-12T04:43:00.689Z,17.60
2018-11-12T04:45:30.124Z,18.00
2018-11-12T04:47:59.589Z,17.87
2018-11-12T04:50:29.533Z,18.07
2018-11-12T04:52:59.071Z,17.57
2018-11-12T04:55:28.428Z,18.53
2018-11-12T04:57:58.123Z,17.30
2018-11-12T05:00:28.630Z,18.03
2018-11-12T05:02:58.209Z,18.27
2018-11-12T05:05:28.512Z,18.30
2018-11-12T05:07:58.334Z,19.10
2018-11-12T05:10:28.200Z,18.13
2018-11-12T05:12:57.613Z,19.07
2018-11-12T05:15:27.421Z,19.17
2018-11-12T05:17:56.744Z,19.73
2018-11-12T05:20:28.505Z,23.10
2018-11-12T05:22:57.874Z,19.50
2018-11-12T05:25:27.287Z,18.03
2018-11-12T05:27:57.029Z,18.60
2018-11-12T05:30:28.472Z,19.93
2018-11-12T05:32:58.827Z,18.70
2018-11-12T05:35:29.409Z,20.47
2018-11-12T05:37:58.804Z,20.57
2018-11-12T05:40:29.370Z,20.53
2018-11-12T05:42:59.077Z,19.07
2018-11-12T05:45:29.092Z,19.27
2018-11-12T05:47:58.244Z,19.07
2018-11-12T05:50:29.660Z,18.30
2018-11-12T05:53:03.593Z,20.10
2018-11-12T05:55:33.485Z,18.57
2018-11-12T05:58:02.908Z,19.23
2018-11-12T06:00:33.342Z,17.17
2018-11-12T06:03:02.630Z,17.83
2018-11-12T06:05:32.323Z,19.03
2018-11-12T06:08:01.640Z,15.47
2018-11-12T06:10:31.718Z,16.13
2018-11-12T06:13:01.135Z,16.10
2018-11-12T06:15:30.262Z,16.57
2018-11-12T06:17:59.358Z,17.50
2018-11-12T06:20:29.839Z,22.33
2018-11-12T06:22:59.027Z,22.07
2018-11-12T06:25:29.787Z,22.53
2018-11-12T06:27:59.014Z,21.70
2018-11-12T06:30:30.702Z,26.43
2018-11-12T06:32:59.843Z,22.47
2018-11-12T06:35:29.385Z,22.10
2018-11-12T06:37:58.973Z,21.87
2018-11-12T06:40:28.745Z,19.67
2018-11-12T06:42:57.977Z,18.03
2018-11-12T06:45:28.473Z,20.40
2018-11-12T06:48:01.688Z,17.67
2018-11-12T06:50:33.118Z,20.90
2018-11-12T06:53:04.630Z,19.13
2018-11-12T06:55:34.857Z,19.77
2018-11-12T06:58:06.313Z,21.70
2018-11-12T07:00:37.773Z,22.00
2018-11-12T07:03:10.204Z,29.67
2018-11-12T07:05:40.378Z,21.20
2018-11-12T07:08:11.332Z,22.37
2018-11-12T07:10:41.699Z,22.43
2018-11-12T07:13:13.848Z,22.60
2018-11-12T07:15:44.799Z,20.37
2018-11-12T07:18:16.933Z,20.90
2018-11-12T07:20:47.754Z,20.20
2018-11-12T07:23:18.009Z,21.27
2018-11-12T07:25:49.897Z,19.83
2018-11-12T07:28:23.506Z,20.83
2018-11-12T07:30:53.611Z,20.03
2018-11-12T07:33:24.245Z,19.27
2018-11-12T07:35:53.949Z,20.53
2018-11-12T07:38:23.427Z,18.70
2018-11-12T07:40:54.968Z,18.50
2018-11-12T07:43:24.220Z,19.27
2018-11-12T07:45:54.161Z,19.30
2018-11-12T07:48:24.292Z,19.97
2018-11-12T07:50:54.011Z,20.93
2018-11-12T07:53:26.050Z,22.30
2018-11-12T07:55:55.697Z,22.37
2018-11-12T07:58:25.999Z,20.73
2018-11-12T08:00:56.409Z,18.47
2018-11-12T08:03:26.544Z,19.20
2018-11-12T08:05:56.521Z,20.13
2018-11-12T08:08:27.810Z,21.90
2018-11-12T08:10:57.608Z,21.37
2018-11-12T08:13:27.776Z,20.87
2018-11-12T08:15:57.784Z,19.73
2018-11-12T08:18:28.639Z,19.57
2018-11-12T08:21:01.690Z,20.80
2018-11-12T08:23:31.581Z,21.47
2018-11-12T08:26:03.403Z,21.10
2018-11-12T08:28:34.114Z,21.50
2018-11-12T08:31:05.544Z,21.60
2018-11-12T08:33:35.524Z,22.17
2018-11-12T08:36:06.255Z,21.53
2018-11-12T08:38:37.805Z,21.80
2018-11-12T08:41:07.970Z,21.37
2018-11-12T08:43:37.938Z,23.37
2018-11-12T08:46:07.952Z,21.57
2018-11-12T08:48:39.539Z,21.37
2018-11-12T08:51:10.704Z,22.93
2018-11-12T08:53:43.456Z,21.97
2018-11-12T08:56:14.311Z,21.73
2018-11-12T08:58:44.077Z,20.80
2018-11-12T09:01:15.910Z,20.00
2018-11-12T09:03:47.085Z,19.20
2018-11-12T09:06:18.985Z,23.33
2018-11-12T09:08:48.526Z,19.73
2018-11-12T09:11:21.489Z,20.10
2018-11-12T09:13:54.877Z,19.17
2018-11-12T09:16:24.178Z,19.60
2018-11-12T09:18:54.638Z,19.93
2018-11-12T09:21:24.647Z,18.93
2018-11-12T09:23:56.985Z,21.47
2018-11-12T09:26:31.070Z,20.00
2018-11-12T09:29:04.328Z,20.57
2018-11-12T09:31:35.576Z,20.63
2018-11-12T09:34:08.002Z,20.20
2018-11-12T09:36:39.501Z,18.67
2018-11-12T09:39:11.483Z,19.03
2018-11-12T09:41:44.260Z,20.33
2018-11-12T09:44:14.033Z,20.90
2018-11-12T09:46:46.919Z,21.33
2018-11-12T09:49:30.247Z,19.97
2018-11-12T09:52:06.536Z,21.53
2018-11-12T09:54:47.176Z,27.73
2018-11-12T09:57:18.525Z,22.00
2018-11-12T09:59:56.164Z,18.77
2018-11-12T10:02:34.293Z,19.40
2018-11-12T10:05:06.198Z,20.67
2018-11-12T10:07:37.348Z,20.57
2018-11-12T10:10:11.718Z,21.20
2018-11-12T10:12:42.434Z,19.60
2018-11-12T10:15:18.826Z,19.20
2018-11-12T10:17:47.849Z,19.53
2018-11-12T10:20:15.838Z,20.60
2018-11-12T10:22:47.237Z,18.70
2018-11-12T10:25:18.047Z,18.47
2018-11-12T10:27:55.344Z,19.20
2018-11-12T10:30:24.700Z,18.67
2018-11-12T10:32:54.356Z,19.53
2018-11-12T10:35:23.633Z,20.07
2018-11-12T10:38:04.390Z,20.57
2018-11-12T10:40:39.943Z,19.03
2018-11-12T10:43:20.701Z,17.97
2018-11-12T10:45:57.902Z,18.17
2018-11-12T10:48:29.945Z,18.03
2018-11-12T10:51:05.169Z,17.03
2018-11-12T10:53:50.207Z,17.87
2018-11-12T10:56:20.446Z,17.73
2018-11-12T10:58:57.338Z,17.57
2018-11-12T11:01:37.928Z,18.57
2018-11-12T11:04:13.809Z,17.50
2018-11-12T11:06:45.638Z,17.60
2018-11-12T11:09:18.074Z,16.70
2018-11-12T11:11:51.423Z,16.93
2018-11-12T11:14:21.826Z,17.23
2018-11-12T11:16:55.765Z,16.77
2018-11-12T11:19:27.748Z,15.93
2018-11-12T11:22:01.351Z,16.23
2018-11-12T11:24:36.810Z,16.63
2018-11-12T11:27:09.236Z,16.27
2018-11-12T11:29:43.020Z,16.17
2018-11-12T11:32:18.482Z,16.23
2018-11-12T11:34:54.934Z,15.70
2018-11-12T11:37:27.679Z,15.73
2018-11-12T11:45:47.270Z,17.43
2018-11-12T11:48:19.335Z,15.50
2018-11-12T11:50:51.342Z,16.07
2018-11-12T11:53:22.504Z,15.53
2018-11-12T11:55:53.647Z,14.67
2018-11-12T11:58:25.713Z,15.67
2018-11-12T12:00:58.663Z,15.50
2018-11-12T12:03:29.040Z,15.00
2018-11-12T12:06:13.705Z,15.03
2018-11-12T12:08:51.183Z,14.43
2018-11-12T12:11:21.404Z,13.03
2018-11-12T12:14:01.152Z,12.73
2018-11-12T12:16:39.935Z,19.67
2018-11-12T12:19:10.870Z,16.80
2018-11-12T12:21:43.665Z,18.17
2018-11-12T12:24:14.731Z,20.03
2018-11-12T12:26:50.684Z,18.33
2018-11-12T12:29:22.031Z,16.20
2018-11-12T12:31:55.891Z,17.30
2018-11-12T12:34:28.849Z,17.40
2018-11-12T12:37:00.539Z,20.50
2018-11-12T12:39:31.219Z,18.03
2018-11-12T12:42:03.423Z,15.90
2018-11-12T12:44:35.098Z,18.33
2018-11-12T12:47:06.895Z,19.70
2018-11-12T12:49:38.910Z,17.17
2018-11-12T12:52:11.682Z,17.67
2018-11-12T12:54:44.578Z,17.20
2018-11-12T12:57:15.003Z,18.33
2018-11-12T12:59:47.149Z,14.90
2018-11-12T13:02:18.062Z,15.63
2018-11-12T13:04:53.686Z,16.57
2018-11-12T13:07:26.263Z,14.10
2018-11-12T13:12:39.034Z,14.17
2018-11-12T13:15:11.224Z,14.37
2018-11-12T13:17:41.553Z,16.50
2018-11-12T13:20:14.659Z,14.07
2018-11-12T13:22:44.684Z,15.90
2018-11-12T13:25:14.071Z,14.90
2018-11-12T13:27:44.658Z,13.03
2018-11-12T13:30:15.511Z,16.33
2018-11-12T13:32:46.657Z,15.37
2018-11-12T13:35:17.626Z,14.60
2018-11-12T13:37:46.836Z,14.63
2018-11-12T13:40:18.672Z,14.37
2018-11-12T13:42:50.384Z,14.83
2018-11-12T13:45:19.797Z,13.30
2018-11-12T13:47:49.505Z,16.33
2018-11-12T13:50:21.134Z,14.40
2018-11-12T13:52:51.450Z,13.07
2018-11-12T13:55:23.351Z,13.10
2018-11-12T13:57:52.979Z,15.77
2018-11-12T14:00:24.615Z,16.90
2018-11-12T14:02:55.163Z,16.93
2018-11-12T14:05:26.347Z,18.40
2018-11-12T14:07:56.205Z,17.23
2018-11-12T14:10:27.924Z,16.00
2018-11-12T14:12:58.954Z,18.60
2018-11-12T14:15:29.257Z,14.77
2018-11-12T14:17:59.511Z,14.27
2018-11-12T14:20:28.886Z,15.53
2018-11-12T14:22:59.650Z,17.33
2018-11-12T14:25:29.324Z,100.93
2018-11-12T14:27:59.424Z,31.07
2018-11-12T14:30:30.855Z,23.93
2018-11-12T14:33:00.169Z,20.33
2018-11-12T14:35:29.949Z,21.87
2018-11-12T14:37:59.225Z,24.23
2018-11-12T14:40:28.272Z,20.63
2018-11-12T14:42:57.405Z,23.30
2018-11-12T14:45:26.588Z,24.93
2018-11-12T14:47:55.613Z,25.37
2018-11-12T14:50:24.749Z,22.13
2018-11-12T14:52:54.278Z,24.77
2018-11-12T14:55:23.437Z,18.70
2018-11-12T14:57:52.557Z,17.63
2018-11-12T15:00:23.792Z,18.27
2018-11-12T15:02:53.422Z,18.70
2018-11-12T15:05:23.969Z,24.63
2018-11-12T15:07:53.037Z,23.87
2018-11-12T15:10:22.152Z,27.27
2018-11-12T15:12:51.468Z,31.93
2018-11-12T15:15:20.633Z,30.20
2018-11-12T15:17:49.731Z,29.00
2018-11-12T15:20:19.911Z,31.70
2018-11-12T15:22:50.278Z,35.40
2018-11-12T15:25:21.473Z,36.40
2018-11-12T15:27:50.760Z,42.43
2018-11-12T15:30:21.248Z,30.07
2018-11-12T15:32:51.437Z,27.10
2018-11-12T15:35:20.561Z,25.20
2018-11-12T15:37:49.988Z,21.07
2018-11-12T15:40:19.028Z,21.70
2018-11-12T15:42:48.132Z,24.97
2018-11-12T15:45:22.160Z,22.90
2018-11-12T15:47:51.481Z,36.53
2018-11-12T15:50:37.147Z,37.47
2018-11-12T15:53:06.223Z,34.17
2018-11-12T15:55:35.272Z,31.33
2018-11-12T15:58:04.463Z,34.83
2018-11-12T16:00:33.605Z,26.40
2018-11-12T16:03:02.654Z,27.03
2018-11-12T16:05:31.874Z,25.20
2018-11-12T16:08:00.898Z,21.30
2018-11-12T16:10:30.022Z,23.00
2018-11-12T16:12:59.219Z,21.23
2018-11-12T16:15:28.353Z,21.93
2018-11-12T16:17:57.420Z,19.20
2018-11-12T16:20:28.732Z,20.87
2018-11-12T16:22:58.755Z,23.77
2018-11-12T16:25:28.383Z,22.03
2018-11-12T16:27:58.001Z,23.10
2018-11-12T16:30:27.025Z,20.53
2018-11-12T16:32:56.049Z,22.93
2018-11-12T16:35:25.702Z,21.90
2018-11-12T16:37:55.745Z,48.80
2018-11-12T16:40:24.805Z,50.20
2018-11-12T16:42:53.898Z,63.40
2018-11-12T16:45:22.938Z,48.93
2018-11-12T16:47:52.043Z,37.07
2018-11-12T16:50:21.297Z,35.67
2018-11-12T16:52:51.286Z,32.30
2018-11-12T16:55:21.742Z,24.13
2018-11-12T16:57:51.623Z,36.20
2018-11-12T17:00:22.247Z,45.47
2018-11-12T17:02:51.482Z,46.33
2018-11-12T17:05:22.000Z,38.37
2018-11-12T17:07:51.376Z,32.20
2018-11-12T17:10:21.828Z,30.23
2018-11-12T17:12:51.156Z,29.40
2018-11-12T17:15:20.272Z,33.37
2018-11-12T17:17:49.572Z,37.07
2018-11-12T17:20:20.100Z,31.27
2018-11-12T17:22:49.214Z,30.97
2018-11-12T17:25:18.604Z,29.97
2018-11-12T17:27:48.166Z,36.50
2018-11-12T17:30:19.584Z,38.27
2018-11-12T17:32:49.368Z,34.97
2018-11-12T17:35:19.560Z,32.67
2018-11-12T17:37:48.619Z,37.40
2018-11-12T17:40:25.938Z,40.33
2018-11-12T17:42:55.893Z,47.97
2018-11-12T17:45:26.607Z,42.43
2018-11-12T17:47:56.493Z,33.57
2018-11-12T17:50:25.491Z,28.60
2018-11-12T17:52:54.596Z,26.73
2018-11-12T17:55:23.625Z,28.20
2018-11-12T17:57:52.752Z,29.50
2018-11-12T18:00:24.994Z,27.37
2018-11-12T18:02:54.079Z,27.90
2018-11-12T18:05:23.293Z,27.53
2018-11-12T18:07:52.555Z,28.90
2018-11-12T18:10:21.949Z,30.73
2018-11-12T18:12:51.013Z,32.77
2018-11-12T18:15:21.371Z,25.73
2018-11-12T18:17:56.138Z,22.13
2018-11-12T18:20:27.437Z,23.33
2018-11-12T18:22:57.048Z,25.27
2018-11-12T18:25:26.262Z,34.17
2018-11-12T18:27:56.009Z,31.63
2018-11-12T18:30:26.596Z,27.47
2018-11-12T18:32:56.828Z,33.20
2018-11-12T18:35:25.963Z,31.40
2018-11-12T18:37:55.148Z,28.43
2018-11-12T18:40:25.733Z,25.03
2018-11-12T18:42:54.947Z,24.37
2018-11-12T18:45:25.529Z,24.00
2018-11-12T18:47:55.063Z,24.23
2018-11-12T18:50:25.956Z,23.57
2018-11-12T18:52:59.331Z,25.63
2018-11-12T18:55:28.609Z,25.63
2018-11-12T18:57:58.458Z,26.67
2018-11-12T19:00:28.072Z,28.20
2018-11-12T19:02:57.379Z,24.20
2018-11-12T19:05:28.964Z,23.53
2018-11-12T19:08:00.377Z,24.13
2018-11-12T19:10:34.468Z,23.97
2018-11-12T19:13:03.682Z,22.67
2018-11-12T19:15:38.026Z,23.17
2018-11-12T19:18:10.823Z,25.77
2018-11-12T19:20:39.997Z,26.57
2018-11-12T19:23:09.101Z,23.50
2018-11-12T19:25:38.306Z,25.30
2018-11-12T19:28:07.536Z,23.13
2018-11-12T19:30:36.733Z,22.97
2018-11-12T19:33:06.305Z,30.43
2018-11-12T19:35:37.559Z,26.97
2018-11-12T19:38:07.090Z,27.70
2018-11-12T19:40:36.308Z,30.20
2018-11-12T19:43:07.494Z,38.43
2018-11-12T19:45:39.835Z,40.90
2018-11-12T19:48:12.533Z,39.43
2018-11-12T19:50:44.250Z,37.77
2018-11-12T19:53:13.625Z,32.37
2018-11-12T19:55:43.133Z,36.20
2018-11-12T19:58:12.287Z,30.17
2018-11-12T20:00:41.377Z,27.63
2018-11-12T20:03:10.500Z,24.00
2018-11-12T20:05:39.744Z,18.80
2018-11-12T20:08:09.063Z,18.83
2018-11-12T20:10:38.294Z,17.47
2018-11-12T20:13:07.490Z,17.60
2018-11-12T20:15:36.652Z,17.40
2018-11-12T20:18:05.907Z,19.03
2018-11-12T20:20:35.551Z,17.07
2018-11-12T20:23:04.684Z,17.00
2018-11-12T20:25:33.838Z,17.17
2018-11-12T20:28:03.110Z,17.97
2018-11-12T20:30:35.711Z,16.93
2018-11-12T20:33:05.282Z,17.50
2018-11-12T20:35:34.364Z,17.30
2018-11-12T20:38:03.568Z,21.33
2018-11-12T20:40:32.818Z,17.33
2018-11-12T20:43:02.070Z,19.47
2018-11-12T20:45:31.577Z,19.17
2018-11-12T20:48:00.753Z,16.13
2018-11-12T20:50:29.826Z,17.57
2018-11-12T20:52:58.993Z,18.33
2018-11-12T20:55:28.081Z,17.07
2018-11-12T20:57:58.174Z,17.40
2018-11-12T21:00:28.673Z,17.03
2018-11-12T21:03:00.486Z,16.47
2018-11-12T21:05:30.560Z,15.93
2018-11-12T21:07:59.765Z,16.50
2018-11-12T21:10:29.029Z,17.10
2018-11-12T21:12:58.270Z,17.53
2018-11-12T21:15:27.592Z,18.37
2018-11-12T21:17:56.801Z,20.70
2018-11-12T21:20:26.956Z,21.50
2018-11-12T21:22:56.366Z,19.97
2018-11-12T21:25:26.512Z,16.73
2018-11-12T21:27:55.946Z,14.37
2018-11-12T21:30:27.238Z,14.37
2018-11-12T21:32:56.300Z,15.77
2018-11-12T21:35:25.680Z,13.70
2018-11-12T21:37:55.712Z,14.40
2018-11-12T21:40:26.174Z,13.97
2018-11-12T21:42:55.270Z,13.70
2018-11-12T21:45:30.921Z,14.60
2018-11-12T21:48:00.209Z,13.97
2018-11-12T21:50:29.377Z,14.50
2018-11-12T21:52:58.761Z,17.77
2018-11-12T21:55:28.229Z,17.67
2018-11-12T21:57:58.133Z,19.37
2018-11-12T22:00:28.842Z,16.80
2018-11-12T22:03:00.076Z,14.50
2018-11-12T22:05:30.482Z,18.07
2018-11-12T22:08:00.241Z,16.73
2018-11-12T22:10:29.900Z,21.87
2018-11-12T22:12:59.495Z,22.40
2018-11-12T22:15:29.103Z,22.57
2018-11-12T22:17:59.456Z,21.87
2018-11-12T22:20:29.669Z,21.60
2018-11-12T22:22:58.999Z,21.80
2018-11-12T22:25:28.715Z,21.67
2018-11-12T22:28:00.976Z,19.63
2018-11-12T22:30:30.874Z,22.67
2018-11-12T22:33:00.925Z,21.97
2018-11-12T22:35:30.619Z,20.67
2018-11-12T22:38:00.253Z,20.77
2018-11-12T22:40:29.868Z,19.40
2018-11-12T22:42:59.524Z,19.20
2018-11-12T22:45:29.241Z,20.73
2018-11-12T22:47:58.853Z,20.97
2018-11-12T22:50:28.459Z,19.77
2018-11-12T22:52:58.325Z,19.30
2018-11-12T22:55:27.800Z,19.03
2018-11-12T22:57:57.397Z,20.17
2018-11-12T23:00:31.560Z,20.47
2018-11-12T23:03:01.330Z,20.93
2018-11-12T23:05:31.402Z,23.53
2018-11-12T23:08:01.598Z,25.97
2018-11-12T23:10:31.101Z,27.40
2018-11-12T23:13:00.867Z,25.83
2018-11-12T23:15:30.429Z,27.13
2018-11-12T23:18:00.330Z,27.87
2018-11-12T23:20:30.533Z,26.53
2018-11-12T23:23:00.344Z,27.00
2018-11-12T23:25:30.522Z,27.90
2018-11-12T23:28:00.278Z,29.97
2018-11-12T23:30:30.898Z,37.77
2018-11-12T23:33:00.487Z,43.23
2018-11-12T23:35:30.173Z,47.23
2018-11-12T23:38:00.260Z,51.77
2018-11-12T23:40:29.817Z,49.13
2018-11-12T23:42:59.345Z,48.80
2018-11-12T23:45:28.880Z,53.93
2018-11-12T23:47:58.521Z,54.63
2018-11-12T23:50:28.268Z,53.47
2018-11-12T23:52:57.992Z,59.33
2018-11-12T23:55:27.496Z,55.80
2018-11-12T23:57:57.296Z,52.13
